sensor_id;sensor_type;location;lat;lon;timestamp;P1;durP1;ratioP1;P2;durP2;ratioP2
46006;SDS011;31738;50.188;8.524;2022-08-16T00:00:59;7.03;;;4.80;;
46006;SDS011;31738;50.188;8.524;2022-08-16T00:03:25;6.00;;;4.32;;
46006;SDS011;31738;50.188;8.524;2022-08-16T00:05:50;11.05;;;4.38;;
46006;SDS011;31738;50.188;8.524;2022-08-16T00:08:16;5.95;;;3.70;;
46006;SDS011;31738;50.188;8.524;2022-08-16T00:10:43;9.48;;;4.43;;
46006;SDS011;31738;50.188;8.524;2022-08-16T00:13:28;7.18;;;4.07;;
46006;SDS011;31738;50.188;8.524;2022-08-16T00:16:24;6.15;;;4.18;;
46006;SDS011;31738;50.188;8.524;2022-08-16T00:18:51;6.65;;;4.20;;
46006;SDS011;31738;50.188;8.524;2022-08-16T00:21:16;5.32;;;4.10;;
46006;SDS011;31738;50.188;8.524;2022-08-16T00:23:42;7.18;;;4.40;;
46006;SDS011;31738;50.188;8.524;2022-08-16T00:26:07;6.28;;;4.32;;
46006;SDS011;31738;50.188;8.524;2022-08-16T00:28:33;5.20;;;3.92;;
46006;SDS011;31738;50.188;8.524;2022-08-16T00:30:58;6.15;;;3.90;;
46006;SDS011;31738;50.188;8.524;2022-08-16T00:33:24;7.47;;;4.00;;
46006;SDS011;31738;50.188;8.524;2022-08-16T00:35:49;5.03;;;3.85;;
46006;SDS011;31738;50.188;8.524;2022-08-16T00:38:15;5.82;;;4.10;;
46006;SDS011;31738;50.188;8.524;2022-08-16T00:40:45;9.63;;;5.15;;
46006;SDS011;31738;50.188;8.524;2022-08-16T00:45:43;5.80;;;4.30;;
46006;SDS011;31738;50.188;8.524;2022-08-16T00:48:24;5.13;;;4.37;;
46006;SDS011;31738;50.188;8.524;2022-08-16T00:50:50;5.65;;;4.45;;
46006;SDS011;31738;50.188;8.524;2022-08-16T00:53:16;8.90;;;4.63;;
46006;SDS011;31738;50.188;8.524;2022-08-16T00:55:46;4.95;;;3.92;;
46006;SDS011;31738;50.188;8.524;2022-08-16T00:58:14;6.10;;;4.18;;
46006;SDS011;31738;50.188;8.524;2022-08-16T01:00:42;8.70;;;4.88;;
46006;SDS011;31738;50.188;8.524;2022-08-16T01:03:11;6.25;;;4.32;;
46006;SDS011;31738;50.188;8.524;2022-08-16T01:05:38;8.50;;;4.18;;
46006;SDS011;31738;50.188;8.524;2022-08-16T01:08:05;5.38;;;4.40;;
46006;SDS011;31738;50.188;8.524;2022-08-16T01:10:32;7.20;;;4.47;;
46006;SDS011;31738;50.188;8.524;2022-08-16T01:13:09;5.72;;;3.90;;
46006;SDS011;31738;50.188;8.524;2022-08-16T01:15:38;6.35;;;4.60;;
46006;SDS011;31738;50.188;8.524;2022-08-16T01:18:06;7.18;;;4.40;;
46006;SDS011;31738;50.188;8.524;2022-08-16T01:20:37;6.43;;;4.32;;
46006;SDS011;31738;50.188;8.524;2022-08-16T01:23:10;5.43;;;4.32;;
46006;SDS011;31738;50.188;8.524;2022-08-16T01:25:41;6.47;;;4.40;;
46006;SDS011;31738;50.188;8.524;2022-08-16T01:28:12;8.15;;;4.22;;
46006;SDS011;31738;50.188;8.524;2022-08-16T01:30:42;6.55;;;4.20;;
46006;SDS011;31738;50.188;8.524;2022-08-16T01:33:10;6.65;;;4.47;;
46006;SDS011;31738;50.188;8.524;2022-08-16T01:35:48;6.63;;;4.28;;
46006;SDS011;31738;50.188;8.524;2022-08-16T01:38:30;7.43;;;4.28;;
46006;SDS011;31738;50.188;8.524;2022-08-16T01:41:03;6.18;;;4.35;;
46006;SDS011;31738;50.188;8.524;2022-08-16T01:43:36;5.45;;;4.15;;
46006;SDS011;31738;50.188;8.524;2022-08-16T01:46:04;7.03;;;4.93;;
46006;SDS011;31738;50.188;8.524;2022-08-16T01:48:33;5.75;;;4.22;;
46006;SDS011;31738;50.188;8.524;2022-08-16T01:50:59;12.18;;;4.43;;
46006;SDS011;31738;50.188;8.524;2022-08-16T01:53:26;5.75;;;4.35;;
46006;SDS011;31738;50.188;8.524;2022-08-16T01:56:01;6.72;;;4.80;;
46006;SDS011;31738;50.188;8.524;2022-08-16T01:58:29;6.63;;;4.82;;
46006;SDS011;31738;50.188;8.524;2022-08-16T02:00:55;7.15;;;4.78;;
46006;SDS011;31738;50.188;8.524;2022-08-16T02:03:21;7.38;;;5.00;;
46006;SDS011;31738;50.188;8.524;2022-08-16T02:05:48;7.28;;;4.60;;
46006;SDS011;31738;50.188;8.524;2022-08-16T02:08:14;7.35;;;4.88;;
46006;SDS011;31738;50.188;8.524;2022-08-16T02:10:40;7.65;;;4.80;;
46006;SDS011;31738;50.188;8.524;2022-08-16T02:13:06;5.90;;;4.03;;
46006;SDS011;31738;50.188;8.524;2022-08-16T02:15:33;6.28;;;4.60;;
46006;SDS011;31738;50.188;8.524;2022-08-16T02:18:00;9.80;;;5.00;;
46006;SDS011;31738;50.188;8.524;2022-08-16T02:20:29;6.80;;;4.80;;
46006;SDS011;31738;50.188;8.524;2022-08-16T02:22:57;5.25;;;4.28;;
46006;SDS011;31738;50.188;8.524;2022-08-16T02:25:24;7.10;;;4.70;;
46006;SDS011;31738;50.188;8.524;2022-08-16T02:27:51;6.85;;;4.60;;
46006;SDS011;31738;50.188;8.524;2022-08-16T02:30:26;10.20;;;5.25;;
46006;SDS011;31738;50.188;8.524;2022-08-16T02:32:53;6.78;;;4.75;;
46006;SDS011;31738;50.188;8.524;2022-08-16T02:35:21;6.80;;;4.70;;
46006;SDS011;31738;50.188;8.524;2022-08-16T02:37:48;7.35;;;4.88;;
46006;SDS011;31738;50.188;8.524;2022-08-16T02:40:15;7.97;;;4.75;;
46006;SDS011;31738;50.188;8.524;2022-08-16T02:42:45;7.10;;;4.97;;
46006;SDS011;31738;50.188;8.524;2022-08-16T02:45:12;6.93;;;4.82;;
46006;SDS011;31738;50.188;8.524;2022-08-16T02:47:39;7.53;;;4.68;;
46006;SDS011;31738;50.188;8.524;2022-08-16T02:50:05;6.70;;;5.05;;
46006;SDS011;31738;50.188;8.524;2022-08-16T02:52:32;6.82;;;4.75;;
46006;SDS011;31738;50.188;8.524;2022-08-16T02:55:04;5.63;;;4.88;;
46006;SDS011;31738;50.188;8.524;2022-08-16T02:57:31;6.85;;;4.80;;
46006;SDS011;31738;50.188;8.524;2022-08-16T02:59:57;6.35;;;4.57;;
46006;SDS011;31738;50.188;8.524;2022-08-16T03:02:24;6.97;;;4.70;;
46006;SDS011;31738;50.188;8.524;2022-08-16T03:04:50;6.97;;;4.93;;
46006;SDS011;31738;50.188;8.524;2022-08-16T03:07:17;7.95;;;4.75;;
46006;SDS011;31738;50.188;8.524;2022-08-16T03:09:47;8.60;;;4.90;;
46006;SDS011;31738;50.188;8.524;2022-08-16T03:12:17;8.05;;;4.80;;
46006;SDS011;31738;50.188;8.524;2022-08-16T03:14:45;7.22;;;4.82;;
46006;SDS011;31738;50.188;8.524;2022-08-16T03:17:12;5.57;;;4.88;;
46006;SDS011;31738;50.188;8.524;2022-08-16T03:19:38;9.63;;;5.30;;
46006;SDS011;31738;50.188;8.524;2022-08-16T03:22:04;8.32;;;5.22;;
46006;SDS011;31738;50.188;8.524;2022-08-16T03:24:31;7.40;;;4.78;;
46006;SDS011;31738;50.188;8.524;2022-08-16T03:26:59;6.85;;;5.30;;
46006;SDS011;31738;50.188;8.524;2022-08-16T03:29:25;7.40;;;5.32;;
46006;SDS011;31738;50.188;8.524;2022-08-16T03:31:52;6.45;;;4.85;;
46006;SDS011;31738;50.188;8.524;2022-08-16T03:34:19;7.40;;;5.18;;
46006;SDS011;31738;50.188;8.524;2022-08-16T03:36:44;7.15;;;4.72;;
46006;SDS011;31738;50.188;8.524;2022-08-16T03:39:10;9.45;;;5.35;;
46006;SDS011;31738;50.188;8.524;2022-08-16T03:41:37;10.00;;;5.40;;
46006;SDS011;31738;50.188;8.524;2022-08-16T03:44:04;6.53;;;4.70;;
46006;SDS011;31738;50.188;8.524;2022-08-16T03:46:34;7.32;;;5.15;;
46006;SDS011;31738;50.188;8.524;2022-08-16T03:49:00;8.48;;;4.97;;
46006;SDS011;31738;50.188;8.524;2022-08-16T03:51:26;6.70;;;5.07;;
46006;SDS011;31738;50.188;8.524;2022-08-16T03:53:58;9.65;;;5.07;;
46006;SDS011;31738;50.188;8.524;2022-08-16T03:56:24;7.95;;;5.10;;
46006;SDS011;31738;50.188;8.524;2022-08-16T03:58:52;7.53;;;5.55;;
46006;SDS011;31738;50.188;8.524;2022-08-16T04:01:22;7.50;;;5.15;;
46006;SDS011;31738;50.188;8.524;2022-08-16T04:03:48;10.45;;;5.35;;
46006;SDS011;31738;50.188;8.524;2022-08-16T04:06:14;9.30;;;5.70;;
46006;SDS011;31738;50.188;8.524;2022-08-16T04:08:41;6.68;;;5.15;;
46006;SDS011;31738;50.188;8.524;2022-08-16T04:11:06;7.93;;;5.25;;
46006;SDS011;31738;50.188;8.524;2022-08-16T04:13:32;6.32;;;5.05;;
46006;SDS011;31738;50.188;8.524;2022-08-16T04:15:58;7.20;;;4.88;;
46006;SDS011;31738;50.188;8.524;2022-08-16T04:18:24;6.63;;;4.90;;
46006;SDS011;31738;50.188;8.524;2022-08-16T04:20:52;6.65;;;5.15;;
46006;SDS011;31738;50.188;8.524;2022-08-16T04:23:23;7.00;;;4.90;;
46006;SDS011;31738;50.188;8.524;2022-08-16T04:25:49;8.55;;;5.38;;
46006;SDS011;31738;50.188;8.524;2022-08-16T04:28:14;8.18;;;5.07;;
46006;SDS011;31738;50.188;8.524;2022-08-16T04:34:30;6.90;;;5.40;;
46006;SDS011;31738;50.188;8.524;2022-08-16T04:36:59;7.18;;;5.32;;
46006;SDS011;31738;50.188;8.524;2022-08-16T04:39:25;6.28;;;4.90;;
46006;SDS011;31738;50.188;8.524;2022-08-16T04:41:51;7.75;;;5.30;;
46006;SDS011;31738;50.188;8.524;2022-08-16T04:44:17;8.65;;;5.43;;
46006;SDS011;31738;50.188;8.524;2022-08-16T04:46:43;8.35;;;5.63;;
46006;SDS011;31738;50.188;8.524;2022-08-16T04:49:09;13.10;;;5.72;;
46006;SDS011;31738;50.188;8.524;2022-08-16T04:51:36;7.22;;;5.53;;
46006;SDS011;31738;50.188;8.524;2022-08-16T04:54:02;10.00;;;6.28;;
46006;SDS011;31738;50.188;8.524;2022-08-16T04:56:28;9.23;;;5.35;;
46006;SDS011;31738;50.188;8.524;2022-08-16T04:58:54;9.38;;;6.25;;
46006;SDS011;31738;50.188;8.524;2022-08-16T05:01:19;7.85;;;6.10;;
46006;SDS011;31738;50.188;8.524;2022-08-16T05:03:46;8.93;;;5.82;;
46006;SDS011;31738;50.188;8.524;2022-08-16T05:06:11;9.18;;;6.32;;
46006;SDS011;31738;50.188;8.524;2022-08-16T05:08:38;10.93;;;6.57;;
46006;SDS011;31738;50.188;8.524;2022-08-16T05:11:10;7.45;;;5.95;;
46006;SDS011;31738;50.188;8.524;2022-08-16T05:13:40;9.05;;;6.15;;
46006;SDS011;31738;50.188;8.524;2022-08-16T05:16:18;8.48;;;5.40;;
46006;SDS011;31738;50.188;8.524;2022-08-16T05:18:47;8.07;;;4.63;;
46006;SDS011;31738;50.188;8.524;2022-08-16T05:21:14;8.77;;;5.43;;
46006;SDS011;31738;50.188;8.524;2022-08-16T05:23:45;7.90;;;6.22;;
46006;SDS011;31738;50.188;8.524;2022-08-16T05:26:11;11.48;;;5.90;;
46006;SDS011;31738;50.188;8.524;2022-08-16T05:28:36;10.32;;;6.07;;
46006;SDS011;31738;50.188;8.524;2022-08-16T05:31:02;10.45;;;6.90;;
46006;SDS011;31738;50.188;8.524;2022-08-16T05:33:29;7.47;;;6.22;;
46006;SDS011;31738;50.188;8.524;2022-08-16T05:35:56;6.28;;;5.57;;
46006;SDS011;31738;50.188;8.524;2022-08-16T05:38:29;8.73;;;6.85;;
46006;SDS011;31738;50.188;8.524;2022-08-16T05:40:58;8.75;;;6.60;;
46006;SDS011;31738;50.188;8.524;2022-08-16T05:43:26;12.88;;;8.05;;
46006;SDS011;31738;50.188;8.524;2022-08-16T05:45:53;10.73;;;7.72;;
46006;SDS011;31738;50.188;8.524;2022-08-16T05:48:19;12.30;;;8.20;;
46006;SDS011;31738;50.188;8.524;2022-08-16T05:50:53;15.43;;;7.80;;
46006;SDS011;31738;50.188;8.524;2022-08-16T05:53:19;11.10;;;7.97;;
46006;SDS011;31738;50.188;8.524;2022-08-16T05:56:02;10.57;;;7.40;;
46006;SDS011;31738;50.188;8.524;2022-08-16T05:58:29;9.50;;;7.82;;
46006;SDS011;31738;50.188;8.524;2022-08-16T06:00:55;11.43;;;7.88;;
46006;SDS011;31738;50.188;8.524;2022-08-16T06:03:20;11.98;;;7.90;;
46006;SDS011;31738;50.188;8.524;2022-08-16T06:05:54;13.98;;;8.15;;
46006;SDS011;31738;50.188;8.524;2022-08-16T06:08:20;11.32;;;8.38;;
46006;SDS011;31738;50.188;8.524;2022-08-16T06:10:47;14.77;;;9.32;;
46006;SDS011;31738;50.188;8.524;2022-08-16T06:13:13;12.73;;;8.23;;
46006;SDS011;31738;50.188;8.524;2022-08-16T06:15:38;16.25;;;8.20;;
46006;SDS011;31738;50.188;8.524;2022-08-16T06:18:04;12.55;;;8.48;;
46006;SDS011;31738;50.188;8.524;2022-08-16T06:20:29;14.95;;;7.53;;
46006;SDS011;31738;50.188;8.524;2022-08-16T06:22:57;12.77;;;8.13;;
46006;SDS011;31738;50.188;8.524;2022-08-16T06:25:25;11.02;;;7.63;;
46006;SDS011;31738;50.188;8.524;2022-08-16T06:27:54;12.20;;;8.60;;
46006;SDS011;31738;50.188;8.524;2022-08-16T06:30:19;14.30;;;9.10;;
46006;SDS011;31738;50.188;8.524;2022-08-16T06:32:44;13.70;;;8.75;;
46006;SDS011;31738;50.188;8.524;2022-08-16T06:35:11;12.27;;;8.38;;
46006;SDS011;31738;50.188;8.524;2022-08-16T06:37:38;12.90;;;8.50;;
46006;SDS011;31738;50.188;8.524;2022-08-16T06:40:07;12.88;;;8.35;;
46006;SDS011;31738;50.188;8.524;2022-08-16T06:42:39;11.50;;;8.13;;
46006;SDS011;31738;50.188;8.524;2022-08-16T06:45:09;14.95;;;8.50;;
46006;SDS011;31738;50.188;8.524;2022-08-16T06:47:40;12.60;;;8.68;;
46006;SDS011;31738;50.188;8.524;2022-08-16T06:50:05;15.52;;;8.82;;
46006;SDS011;31738;50.188;8.524;2022-08-16T06:52:43;10.85;;;7.85;;
46006;SDS011;31738;50.188;8.524;2022-08-16T06:55:13;13.02;;;8.07;;
46006;SDS011;31738;50.188;8.524;2022-08-16T06:57:45;12.55;;;8.27;;
46006;SDS011;31738;50.188;8.524;2022-08-16T07:00:11;11.68;;;8.18;;
46006;SDS011;31738;50.188;8.524;2022-08-16T07:02:46;11.63;;;8.07;;
46006;SDS011;31738;50.188;8.524;2022-08-16T07:05:12;12.60;;;8.07;;
46006;SDS011;31738;50.188;8.524;2022-08-16T07:07:42;11.57;;;7.32;;
46006;SDS011;31738;50.188;8.524;2022-08-16T07:10:10;12.75;;;8.18;;
46006;SDS011;31738;50.188;8.524;2022-08-16T07:12:36;11.82;;;7.28;;
46006;SDS011;31738;50.188;8.524;2022-08-16T07:15:02;10.50;;;7.22;;
46006;SDS011;31738;50.188;8.524;2022-08-16T07:17:29;14.68;;;8.48;;
46006;SDS011;31738;50.188;8.524;2022-08-16T07:19:57;12.50;;;8.07;;
46006;SDS011;31738;50.188;8.524;2022-08-16T07:22:29;12.85;;;8.30;;
46006;SDS011;31738;50.188;8.524;2022-08-16T07:24:54;14.63;;;8.75;;
46006;SDS011;31738;50.188;8.524;2022-08-16T07:27:21;10.57;;;8.13;;
46006;SDS011;31738;50.188;8.524;2022-08-16T07:29:47;13.57;;;8.25;;
46006;SDS011;31738;50.188;8.524;2022-08-16T07:32:13;13.60;;;8.23;;
46006;SDS011;31738;50.188;8.524;2022-08-16T07:34:39;15.43;;;9.27;;
46006;SDS011;31738;50.188;8.524;2022-08-16T07:37:06;14.63;;;7.30;;
46006;SDS011;31738;50.188;8.524;2022-08-16T07:39:51;9.88;;;7.32;;
46006;SDS011;31738;50.188;8.524;2022-08-16T07:42:18;11.85;;;7.95;;
46006;SDS011;31738;50.188;8.524;2022-08-16T07:44:44;13.35;;;8.70;;
46006;SDS011;31738;50.188;8.524;2022-08-16T07:47:10;12.20;;;8.38;;
46006;SDS011;31738;50.188;8.524;2022-08-16T07:49:35;11.48;;;7.47;;
46006;SDS011;31738;50.188;8.524;2022-08-16T07:52:04;11.18;;;7.65;;
46006;SDS011;31738;50.188;8.524;2022-08-16T07:54:31;14.30;;;8.50;;
46006;SDS011;31738;50.188;8.524;2022-08-16T07:56:56;16.40;;;8.13;;
46006;SDS011;31738;50.188;8.524;2022-08-16T07:59:23;12.38;;;8.25;;
46006;SDS011;31738;50.188;8.524;2022-08-16T08:01:52;12.55;;;7.63;;
46006;SDS011;31738;50.188;8.524;2022-08-16T08:04:25;10.93;;;7.88;;
46006;SDS011;31738;50.188;8.524;2022-08-16T08:06:50;10.15;;;7.57;;
46006;SDS011;31738;50.188;8.524;2022-08-16T08:09:16;8.32;;;6.78;;
46006;SDS011;31738;50.188;8.524;2022-08-16T08:11:42;11.90;;;7.22;;
46006;SDS011;31738;50.188;8.524;2022-08-16T08:14:09;10.45;;;6.78;;
46006;SDS011;31738;50.188;8.524;2022-08-16T08:16:41;10.70;;;7.95;;
46006;SDS011;31738;50.188;8.524;2022-08-16T08:19:07;9.45;;;6.50;;
46006;SDS011;31738;50.188;8.524;2022-08-16T08:21:37;9.40;;;6.20;;
46006;SDS011;31738;50.188;8.524;2022-08-16T08:24:05;9.13;;;6.15;;
46006;SDS011;31738;50.188;8.524;2022-08-16T08:26:33;10.18;;;6.85;;
46006;SDS011;31738;50.188;8.524;2022-08-16T08:29:00;8.65;;;6.22;;
46006;SDS011;31738;50.188;8.524;2022-08-16T08:31:27;8.80;;;6.63;;
46006;SDS011;31738;50.188;8.524;2022-08-16T08:33:53;9.10;;;6.13;;
46006;SDS011;31738;50.188;8.524;2022-08-16T08:36:24;11.52;;;7.03;;
46006;SDS011;31738;50.188;8.524;2022-08-16T08:38:57;9.32;;;6.45;;
46006;SDS011;31738;50.188;8.524;2022-08-16T08:41:24;9.75;;;6.13;;
46006;SDS011;31738;50.188;8.524;2022-08-16T08:43:54;10.60;;;6.13;;
46006;SDS011;31738;50.188;8.524;2022-08-16T08:46:20;8.02;;;6.45;;
46006;SDS011;31738;50.188;8.524;2022-08-16T08:48:49;11.27;;;6.25;;
46006;SDS011;31738;50.188;8.524;2022-08-16T08:51:16;8.27;;;6.03;;
46006;SDS011;31738;50.188;8.524;2022-08-16T08:53:50;10.65;;;6.50;;
46006;SDS011;31738;50.188;8.524;2022-08-16T08:56:15;7.63;;;6.35;;
46006;SDS011;31738;50.188;8.524;2022-08-16T08:58:41;7.97;;;5.78;;
46006;SDS011;31738;50.188;8.524;2022-08-16T09:01:17;8.48;;;6.32;;
46006;SDS011;31738;50.188;8.524;2022-08-16T09:03:47;7.72;;;5.53;;
46006;SDS011;31738;50.188;8.524;2022-08-16T09:06:12;7.85;;;5.20;;
46006;SDS011;31738;50.188;8.524;2022-08-16T09:08:41;6.90;;;5.03;;
46006;SDS011;31738;50.188;8.524;2022-08-16T09:11:11;8.50;;;5.70;;
46006;SDS011;31738;50.188;8.524;2022-08-16T09:13:37;6.38;;;5.50;;
46006;SDS011;31738;50.188;8.524;2022-08-16T09:16:03;10.70;;;6.25;;
46006;SDS011;31738;50.188;8.524;2022-08-16T09:18:30;8.30;;;5.28;;
46006;SDS011;31738;50.188;8.524;2022-08-16T09:20:55;7.07;;;5.05;;
46006;SDS011;31738;50.188;8.524;2022-08-16T09:23:21;7.05;;;5.63;;
46006;SDS011;31738;50.188;8.524;2022-08-16T09:25:47;10.50;;;5.65;;
46006;SDS011;31738;50.188;8.524;2022-08-16T09:28:14;8.45;;;5.55;;
46006;SDS011;31738;50.188;8.524;2022-08-16T09:30:45;8.55;;;5.68;;
46006;SDS011;31738;50.188;8.524;2022-08-16T09:33:11;8.32;;;5.50;;
46006;SDS011;31738;50.188;8.524;2022-08-16T09:35:42;8.07;;;5.32;;
46006;SDS011;31738;50.188;8.524;2022-08-16T09:38:10;7.45;;;6.05;;
46006;SDS011;31738;50.188;8.524;2022-08-16T09:40:41;7.15;;;4.72;;
46006;SDS011;31738;50.188;8.524;2022-08-16T09:43:08;6.80;;;5.20;;
46006;SDS011;31738;50.188;8.524;2022-08-16T09:45:35;7.05;;;5.05;;
46006;SDS011;31738;50.188;8.524;2022-08-16T09:48:07;8.10;;;5.18;;
46006;SDS011;31738;50.188;8.524;2022-08-16T09:50:35;5.07;;;4.43;;
46006;SDS011;31738;50.188;8.524;2022-08-16T09:53:03;4.82;;;4.22;;
46006;SDS011;31738;50.188;8.524;2022-08-16T09:55:30;6.88;;;5.32;;
46006;SDS011;31738;50.188;8.524;2022-08-16T09:57:55;5.95;;;5.30;;
46006;SDS011;31738;50.188;8.524;2022-08-16T10:00:22;7.63;;;4.60;;
46006;SDS011;31738;50.188;8.524;2022-08-16T10:02:48;8.43;;;5.75;;
46006;SDS011;31738;50.188;8.524;2022-08-16T10:05:17;6.35;;;5.40;;
46006;SDS011;31738;50.188;8.524;2022-08-16T10:07:43;7.20;;;4.88;;
46006;SDS011;31738;50.188;8.524;2022-08-16T10:10:11;5.38;;;4.68;;
46006;SDS011;31738;50.188;8.524;2022-08-16T10:12:37;4.80;;;4.32;;
46006;SDS011;31738;50.188;8.524;2022-08-16T10:15:21;7.40;;;4.30;;
46006;SDS011;31738;50.188;8.524;2022-08-16T10:17:48;6.75;;;4.20;;
46006;SDS011;31738;50.188;8.524;2022-08-16T10:20:17;5.57;;;4.05;;
46006;SDS011;31738;50.188;8.524;2022-08-16T10:22:42;6.32;;;4.30;;
46006;SDS011;31738;50.188;8.524;2022-08-16T10:25:08;5.43;;;4.68;;
46006;SDS011;31738;50.188;8.524;2022-08-16T10:27:34;4.97;;;3.88;;
46006;SDS011;31738;50.188;8.524;2022-08-16T10:30:00;4.63;;;4.20;;
46006;SDS011;31738;50.188;8.524;2022-08-16T10:32:26;5.93;;;3.70;;
46006;SDS011;31738;50.188;8.524;2022-08-16T10:34:52;5.68;;;4.00;;
46006;SDS011;31738;50.188;8.524;2022-08-16T10:37:17;5.90;;;4.18;;
46006;SDS011;31738;50.188;8.524;2022-08-16T10:39:43;4.75;;;4.05;;
46006;SDS011;31738;50.188;8.524;2022-08-16T10:42:11;5.22;;;3.85;;
46006;SDS011;31738;50.188;8.524;2022-08-16T10:44:37;5.53;;;4.30;;
46006;SDS011;31738;50.188;8.524;2022-08-16T10:47:03;6.22;;;4.15;;
46006;SDS011;31738;50.188;8.524;2022-08-16T10:49:29;5.38;;;3.95;;
46006;SDS011;31738;50.188;8.524;2022-08-16T10:51:54;4.70;;;3.78;;
46006;SDS011;31738;50.188;8.524;2022-08-16T10:54:20;5.15;;;3.50;;
46006;SDS011;31738;50.188;8.524;2022-08-16T10:56:47;5.57;;;4.00;;
46006;SDS011;31738;50.188;8.524;2022-08-16T10:59:13;6.20;;;4.28;;
46006;SDS011;31738;50.188;8.524;2022-08-16T11:01:39;4.75;;;3.78;;
46006;SDS011;31738;50.188;8.524;2022-08-16T11:04:04;4.15;;;3.53;;
46006;SDS011;31738;50.188;8.524;2022-08-16T11:06:31;4.97;;;3.50;;
46006;SDS011;31738;50.188;8.524;2022-08-16T11:08:56;3.63;;;3.25;;
46006;SDS011;31738;50.188;8.524;2022-08-16T11:11:22;4.25;;;3.85;;
46006;SDS011;31738;50.188;8.524;2022-08-16T11:13:49;4.88;;;3.50;;
46006;SDS011;31738;50.188;8.524;2022-08-16T11:16:16;3.88;;;3.03;;
46006;SDS011;31738;50.188;8.524;2022-08-16T11:18:42;4.18;;;3.40;;
46006;SDS011;31738;50.188;8.524;2022-08-16T11:21:08;3.65;;;3.28;;
46006;SDS011;31738;50.188;8.524;2022-08-16T11:23:34;5.80;;;3.00;;
46006;SDS011;31738;50.188;8.524;2022-08-16T11:26:00;4.68;;;3.30;;
46006;SDS011;31738;50.188;8.524;2022-08-16T11:28:25;3.28;;;2.90;;
46006;SDS011;31738;50.188;8.524;2022-08-16T11:30:51;4.68;;;3.15;;
46006;SDS011;31738;50.188;8.524;2022-08-16T11:33:16;4.70;;;3.05;;
46006;SDS011;31738;50.188;8.524;2022-08-16T11:35:42;3.65;;;3.35;;
46006;SDS011;31738;50.188;8.524;2022-08-16T11:38:13;3.25;;;2.95;;
46006;SDS011;31738;50.188;8.524;2022-08-16T11:40:45;4.03;;;3.10;;
46006;SDS011;31738;50.188;8.524;2022-08-16T11:43:16;5.07;;;3.00;;
46006;SDS011;31738;50.188;8.524;2022-08-16T11:45:44;3.92;;;3.30;;
46006;SDS011;31738;50.188;8.524;2022-08-16T11:48:12;3.97;;;3.50;;
46006;SDS011;31738;50.188;8.524;2022-08-16T11:50:38;4.95;;;3.83;;
46006;SDS011;31738;50.188;8.524;2022-08-16T11:53:05;3.28;;;2.97;;
46006;SDS011;31738;50.188;8.524;2022-08-16T11:55:32;2.80;;;2.58;;
46006;SDS011;31738;50.188;8.524;2022-08-16T11:57:59;3.58;;;3.05;;
46006;SDS011;31738;50.188;8.524;2022-08-16T12:00:26;3.75;;;3.20;;
46006;SDS011;31738;50.188;8.524;2022-08-16T12:02:53;3.30;;;3.00;;
46006;SDS011;31738;50.188;8.524;2022-08-16T12:05:19;4.82;;;3.67;;
46006;SDS011;31738;50.188;8.524;2022-08-16T12:07:45;3.70;;;3.03;;
46006;SDS011;31738;50.188;8.524;2022-08-16T12:10:12;3.55;;;3.03;;
46006;SDS011;31738;50.188;8.524;2022-08-16T12:12:40;3.45;;;2.85;;
46006;SDS011;31738;50.188;8.524;2022-08-16T12:15:07;4.35;;;3.28;;
46006;SDS011;31738;50.188;8.524;2022-08-16T12:17:33;3.70;;;3.40;;
46006;SDS011;31738;50.188;8.524;2022-08-16T12:19:59;3.97;;;3.10;;
46006;SDS011;31738;50.188;8.524;2022-08-16T12:22:26;5.43;;;3.05;;
46006;SDS011;31738;50.188;8.524;2022-08-16T12:24:52;4.60;;;2.78;;
46006;SDS011;31738;50.188;8.524;2022-08-16T12:27:19;3.55;;;2.90;;
46006;SDS011;31738;50.188;8.524;2022-08-16T12:29:46;3.38;;;2.88;;
46006;SDS011;31738;50.188;8.524;2022-08-16T12:32:11;4.10;;;3.13;;
46006;SDS011;31738;50.188;8.524;2022-08-16T12:34:37;3.30;;;2.75;;
46006;SDS011;31738;50.188;8.524;2022-08-16T12:37:02;4.25;;;2.80;;
46006;SDS011;31738;50.188;8.524;2022-08-16T12:39:28;3.28;;;2.65;;
46006;SDS011;31738;50.188;8.524;2022-08-16T12:41:54;3.15;;;2.85;;
46006;SDS011;31738;50.188;8.524;2022-08-16T12:44:20;4.03;;;2.70;;
46006;SDS011;31738;50.188;8.524;2022-08-16T12:46:45;3.88;;;2.92;;
46006;SDS011;31738;50.188;8.524;2022-08-16T12:49:31;4.72;;;3.05;;
46006;SDS011;31738;50.188;8.524;2022-08-16T12:51:56;3.50;;;3.05;;
46006;SDS011;31738;50.188;8.524;2022-08-16T12:54:22;3.03;;;2.50;;
46006;SDS011;31738;50.188;8.524;2022-08-16T12:56:47;5.22;;;2.75;;
46006;SDS011;31738;50.188;8.524;2022-08-16T12:59:13;3.22;;;2.65;;
46006;SDS011;31738;50.188;8.524;2022-08-16T13:01:39;2.60;;;2.40;;
46006;SDS011;31738;50.188;8.524;2022-08-16T13:04:05;3.05;;;2.75;;
46006;SDS011;31738;50.188;8.524;2022-08-16T13:09:05;4.13;;;2.88;;
46006;SDS011;31738;50.188;8.524;2022-08-16T13:11:48;3.80;;;3.17;;
46006;SDS011;31738;50.188;8.524;2022-08-16T13:14:25;5.32;;;3.08;;
46006;SDS011;31738;50.188;8.524;2022-08-16T13:16:53;3.20;;;2.90;;
46006;SDS011;31738;50.188;8.524;2022-08-16T13:19:18;6.13;;;2.92;;
46006;SDS011;31738;50.188;8.524;2022-08-16T13:21:44;3.35;;;2.90;;
46006;SDS011;31738;50.188;8.524;2022-08-16T13:24:09;3.33;;;2.78;;
46006;SDS011;31738;50.188;8.524;2022-08-16T13:26:35;4.45;;;2.85;;
46006;SDS011;31738;50.188;8.524;2022-08-16T13:29:00;2.85;;;2.65;;
46006;SDS011;31738;50.188;8.524;2022-08-16T13:31:26;3.60;;;2.95;;
46006;SDS011;31738;50.188;8.524;2022-08-16T13:33:51;3.78;;;2.85;;
46006;SDS011;31738;50.188;8.524;2022-08-16T13:36:17;3.42;;;2.47;;
46006;SDS011;31738;50.188;8.524;2022-08-16T13:38:42;3.15;;;2.92;;
46006;SDS011;31738;50.188;8.524;2022-08-16T13:41:10;3.42;;;2.70;;
46006;SDS011;31738;50.188;8.524;2022-08-16T13:43:37;2.67;;;2.47;;
46006;SDS011;31738;50.188;8.524;2022-08-16T13:46:03;3.08;;;2.60;;
46006;SDS011;31738;50.188;8.524;2022-08-16T13:48:31;2.60;;;2.40;;
46006;SDS011;31738;50.188;8.524;2022-08-16T13:50:57;3.50;;;2.65;;
46006;SDS011;31738;50.188;8.524;2022-08-16T13:53:26;4.82;;;2.60;;
46006;SDS011;31738;50.188;8.524;2022-08-16T13:55:53;2.63;;;2.42;;
46006;SDS011;31738;50.188;8.524;2022-08-16T13:58:20;2.60;;;2.40;;
46006;SDS011;31738;50.188;8.524;2022-08-16T14:00:46;3.13;;;2.55;;
46006;SDS011;31738;50.188;8.524;2022-08-16T14:03:12;2.90;;;2.53;;
46006;SDS011;31738;50.188;8.524;2022-08-16T14:05:38;3.95;;;2.58;;
46006;SDS011;31738;50.188;8.524;2022-08-16T14:08:04;5.30;;;2.55;;
46006;SDS011;31738;50.188;8.524;2022-08-16T14:10:30;2.80;;;2.60;;
46006;SDS011;31738;50.188;8.524;2022-08-16T14:12:56;2.75;;;2.20;;
46006;SDS011;31738;50.188;8.524;2022-08-16T14:15:22;2.90;;;2.70;;
46006;SDS011;31738;50.188;8.524;2022-08-16T14:17:48;3.08;;;2.63;;
46006;SDS011;31738;50.188;8.524;2022-08-16T14:20:14;2.78;;;2.58;;
46006;SDS011;31738;50.188;8.524;2022-08-16T14:22:40;3.05;;;2.75;;
46006;SDS011;31738;50.188;8.524;2022-08-16T14:25:11;3.05;;;2.60;;
46006;SDS011;31738;50.188;8.524;2022-08-16T14:27:39;3.17;;;2.88;;
46006;SDS011;31738;50.188;8.524;2022-08-16T14:30:06;2.65;;;2.45;;
46006;SDS011;31738;50.188;8.524;2022-08-16T14:32:34;2.45;;;2.25;;
46006;SDS011;31738;50.188;8.524;2022-08-16T14:35:19;3.45;;;2.63;;
46006;SDS011;31738;50.188;8.524;2022-08-16T14:37:51;2.85;;;2.58;;
46006;SDS011;31738;50.188;8.524;2022-08-16T14:40:18;4.95;;;2.42;;
46006;SDS011;31738;50.188;8.524;2022-08-16T14:42:45;4.07;;;2.35;;
46006;SDS011;31738;50.188;8.524;2022-08-16T14:45:12;2.50;;;2.30;;
46006;SDS011;31738;50.188;8.524;2022-08-16T14:47:39;3.00;;;2.53;;
46006;SDS011;31738;50.188;8.524;2022-08-16T14:50:06;2.92;;;2.42;;
46006;SDS011;31738;50.188;8.524;2022-08-16T14:52:34;4.43;;;2.53;;
46006;SDS011;31738;50.188;8.524;2022-08-16T14:55:01;2.72;;;2.40;;
46006;SDS011;31738;50.188;8.524;2022-08-16T14:57:27;3.05;;;2.42;;